METAR / TAF

ENOV 251920Z 26004KT 210V320 9999 BKN055 13/03 Q0999 RMK WIND RWY24 26006KT WIND 2090FT 19012KT


ENSD 251920Z VRB01KT 9999 FEW038 BKN051 11/05 Q0999 RMK WIND RWY26 00000KT WIND 1140FT 19005KT


ENAL 251920Z 03009KT 9999 FEW042 SCT057 10/07 Q0999


ENML 251920Z 03008KT 350V060 CAVOK 13/06 Q0999